Time;durP1;ratioP1;P1;durP2;ratioP2;P2;SDS_P1;SDS_P2;PMS_P1;PMS_P2;Temp;Humidity;BMP_temperature;BMP_pressure;BME280_temperature;BME280_humidity;BME280_pressure;Samples;Min_cycle;Max_cycle;Signal;HPM_P1;HPM_P2
2023/05/24 00:02:12;;;;;;;;;;;;;;;13.50;100.00;99463.34;5071764;28;851;-63
2023/05/24 00:04:40;;;;;;;;;;;;;;;13.43;100.00;99464.28;5069895;28;1262;-63
2023/05/24 00:07:07;;;;;;;;;;;;;;;13.40;100.00;99457.59;5070996;28;1945;-62
2023/05/24 00:09:34;;;;;;;;;;;;;;;13.39;100.00;99446.91;5071254;28;960;-63
2023/05/24 00:12:01;;;;;;;;;;;;;;;13.39;100.00;99450.47;5070900;28;1271;-62
2023/05/24 00:14:27;;;;;;;;;;;;;;;13.40;100.00;99456.81;5071064;28;844;-62
2023/05/24 00:16:54;;;;;;;;;;;;;;;13.43;100.00;99458.72;5071414;28;895;-64
2023/05/24 00:19:21;;;;;;;;;;;;;;;13.46;100.00;99467.00;5071053;28;875;-63
2023/05/24 00:21:48;;;;;;;;;;;;;;;13.47;100.00;99467.75;5071067;28;819;-62
2023/05/24 00:24:18;;;;;;;;;;;;;;;13.45;100.00;99459.84;5071041;28;871;-62
2023/05/24 00:26:44;;;;;;;;;;;;;;;13.46;100.00;99461.44;5070843;28;923;-62
2023/05/24 00:29:10;;;;;;;;;;;;;;;13.47;100.00;99453.88;5070954;28;1905;-62
2023/05/24 00:31:37;;;;;;;;;;;;;;;13.50;100.00;99461.34;5070938;28;824;-62
2023/05/24 00:34:04;;;;;;;;;;;;;;;13.52;100.00;99458.13;5072877;28;902;-62
2023/05/24 00:36:31;;;;;;;;;;;;;;;13.54;100.00;99461.25;5073214;28;1323;-63
2023/05/24 00:38:58;;;;;;;;;;;;;;;13.56;100.00;99458.84;5074449;28;871;-63
2023/05/24 00:41:25;;;;;;;;;;;;;;;13.55;100.00;99455.28;5074532;28;898;-63
2023/05/24 00:43:52;;;;;;;;;;;;;;;13.50;100.00;99449.47;5074427;28;955;-62
2023/05/24 00:46:27;;;;;;;;;;;;;;;13.44;100.00;99451.94;5074376;28;1011;-63
2023/05/24 00:48:54;;;;;;;;;;;;;;;13.38;100.00;99450.91;5074327;28;1863;-62
2023/05/24 00:51:22;;;;;;;;;;;;;;;13.34;100.00;99447.44;5074295;28;835;-62
2023/05/24 00:53:49;;;;;;;;;;;;;;;13.36;100.00;99453.34;5074504;28;815;-62
2023/05/24 00:56:16;;;;;;;;;;;;;;;13.33;100.00;99459.75;5074143;28;835;-62
2023/05/24 00:58:44;;;;;;;;;;;;;;;13.30;100.00;99455.06;5074132;28;887;-62
2023/05/24 01:01:10;;;;;;;;;;;;;;;13.30;100.00;99452.28;5074292;28;836;-62
2023/05/24 01:03:38;;;;;;;;;;;;;;;13.31;100.00;99453.84;5074112;28;824;-63
2023/05/24 01:06:06;;;;;;;;;;;;;;;13.32;100.00;99452.63;5074080;28;921;-63
2023/05/24 01:08:50;;;;;;;;;;;;;;;13.28;100.00;99445.16;5074023;28;1956;-63
2023/05/24 01:11:23;;;;;;;;;;;;;;;13.21;100.00;99441.75;5073652;28;1379;-62
2023/05/24 01:13:59;;;;;;;;;;;;;;;13.17;100.00;99438.25;5073984;28;910;-62
2023/05/24 01:16:30;;;;;;;;;;;;;;;13.15;100.00;99441.44;5073932;28;811;-63
2023/05/24 01:18:59;;;;;;;;;;;;;;;13.16;100.00;99437.44;5072558;28;1212;-63
2023/05/24 01:21:37;;;;;;;;;;;;;;;13.05;100.00;99434.13;5073731;28;843;-63
2023/05/24 01:24:24;;;;;;;;;;;;;;;12.97;100.00;99446.56;5073996;28;859;-62
2023/05/24 01:27:12;;;;;;;;;;;;;;;12.86;100.00;99444.03;5073705;28;878;-62
2023/05/24 01:29:39;;;;;;;;;;;;;;;12.91;100.00;99440.75;5074204;28;855;-62
2023/05/24 01:32:06;;;;;;;;;;;;;;;12.94;100.00;99450.22;5073946;28;890;-62
2023/05/24 01:34:32;;;;;;;;;;;;;;;12.90;100.00;99449.50;5073636;28;894;-62
2023/05/24 01:36:59;;;;;;;;;;;;;;;12.90;100.00;99449.50;5073468;28;866;-63
2023/05/24 01:39:28;;;;;;;;;;;;;;;12.90;100.00;99444.72;5073417;28;839;-62
2023/05/24 01:42:13;;;;;;;;;;;;;;;12.96;100.00;99448.56;5073936;28;804;-61
2023/05/24 01:44:43;;;;;;;;;;;;;;;13.02;100.00;99448.88;5073057;28;851;-62
2023/05/24 01:47:16;;;;;;;;;;;;;;;13.04;100.00;99454.78;5073711;28;1886;-62
2023/05/24 01:49:48;;;;;;;;;;;;;;;13.02;100.00;99452.41;5073263;28;843;-61
2023/05/24 01:52:19;;;;;;;;;;;;;;;13.00;100.00;99446.50;5073192;28;899;-62
2023/05/24 01:54:50;;;;;;;;;;;;;;;12.97;100.00;99441.03;5071780;28;1627;-61
2023/05/24 01:57:18;;;;;;;;;;;;;;;12.97;100.00;99446.56;5072956;28;877;-62
2023/05/24 01:59:46;;;;;;;;;;;;;;;12.92;100.00;99434.00;5073376;28;851;-61
2023/05/24 02:02:13;;;;;;;;;;;;;;;12.87;100.00;99438.06;5073443;28;824;-62
2023/05/24 02:04:39;;;;;;;;;;;;;;;12.86;100.00;99442.03;5073491;28;843;-62
2023/05/24 02:07:06;;;;;;;;;;;;;;;12.83;100.00;99447.66;5073116;28;1945;-62
2023/05/24 02:09:33;;;;;;;;;;;;;;;12.81;100.00;99431.44;5073679;28;1027;-61
2023/05/24 02:11:59;;;;;;;;;;;;;;;12.81;100.00;99431.44;5072616;28;1460;-61
2023/05/24 02:14:26;;;;;;;;;;;;;;;12.81;100.00;99434.22;5072973;28;894;-62
2023/05/24 02:16:57;;;;;;;;;;;;;;;12.79;100.00;99442.16;5072723;28;824;-61
2023/05/24 02:19:24;;;;;;;;;;;;;;;12.74;100.00;99433.56;5072696;28;886;-61
2023/05/24 02:21:51;;;;;;;;;;;;;;;12.74;100.00;99444.66;5072613;28;839;-62
2023/05/24 02:24:18;;;;;;;;;;;;;;;12.78;100.00;99446.16;5072448;28;851;-62
2023/05/24 02:26:44;;;;;;;;;;;;;;;12.78;100.00;99456.47;5072488;28;843;-62
2023/05/24 02:29:11;;;;;;;;;;;;;;;12.70;100.00;99455.06;5072530;28;1977;-62
2023/05/24 02:31:38;;;;;;;;;;;;;;;12.65;100.00;99457.09;5072485;28;823;-62
2023/05/24 02:34:05;;;;;;;;;;;;;;;12.68;100.00;99465.78;5072575;28;890;-62
2023/05/24 02:36:34;;;;;;;;;;;;;;;12.68;100.00;99461.00;5072459;28;974;-62
2023/05/24 02:39:02;;;;;;;;;;;;;;;12.72;100.00;99458.97;5072293;28;911;-63
2023/05/24 02:41:29;;;;;;;;;;;;;;;12.78;100.00;99465.59;5072196;28;835;-62
2023/05/24 02:43:56;;;;;;;;;;;;;;;12.82;100.00;99471.84;5072227;28;827;-61
2023/05/24 02:46:23;;;;;;;;;;;;;;;12.85;100.00;99468.22;5072137;28;819;-62
2023/05/24 02:48:49;;;;;;;;;;;;;;;12.78;100.00;99475.88;5071963;28;1889;-61
2023/05/24 02:51:16;;;;;;;;;;;;;;;12.69;100.00;99470.88;5072059;28;859;-61
2023/05/24 02:53:44;;;;;;;;;;;;;;;12.65;100.00;99470.16;5071958;28;812;-61
2023/05/24 02:56:12;;;;;;;;;;;;;;;12.63;100.00;99473.38;5071853;28;962;-62
2023/05/24 02:58:39;;;;;;;;;;;;;;;12.64;100.00;99474.16;5071922;28;940;-61
2023/05/24 03:01:07;;;;;;;;;;;;;;;12.66;100.00;99480.84;5071951;28;823;-62
2023/05/24 03:03:34;;;;;;;;;;;;;;;12.71;100.00;99478.78;5071835;28;944;-62
2023/05/24 03:06:00;;;;;;;;;;;;;;;12.79;100.00;99480.22;5072075;28;874;-62
2023/05/24 03:08:27;;;;;;;;;;;;;;;12.92;100.00;99492.25;5071795;28;1959;-62
2023/05/24 03:10:54;;;;;;;;;;;;;;;13.00;100.00;99488.13;5071564;28;1180;-61
2023/05/24 03:13:21;;;;;;;;;;;;;;;13.05;100.00;99490.38;5071767;28;835;-62
2023/05/24 03:15:47;;;;;;;;;;;;;;;13.05;100.00;99487.63;5071919;28;886;-62
2023/05/24 03:18:14;;;;;;;;;;;;;;;13.01;100.00;99486.13;5071638;28;910;-62
2023/05/24 03:20:41;;;;;;;;;;;;;;;13.01;100.00;99480.56;5071606;28;891;-62
2023/05/24 03:23:08;;;;;;;;;;;;;;;12.98;100.00;99482.22;5071530;28;827;-62
2023/05/24 03:25:35;;;;;;;;;;;;;;;13.04;100.00;99479.75;5071413;28;965;-62
2023/05/24 03:28:02;;;;;;;;;;;;;;;13.10;100.00;99477.22;5071578;28;1914;-62
2023/05/24 03:30:28;;;;;;;;;;;;;;;13.15;100.00;99477.53;5071505;28;874;-62
2023/05/24 03:32:56;;;;;;;;;;;;;;;13.18;100.00;99473.09;5071587;28;812;-62
2023/05/24 03:35:22;;;;;;;;;;;;;;;13.18;100.00;99479.44;5071487;28;807;-62
2023/05/24 03:37:49;;;;;;;;;;;;;;;13.17;100.00;99477.09;5071478;28;978;-62
2023/05/24 03:40:16;;;;;;;;;;;;;;;13.18;100.00;99484.97;5071440;28;816;-63
2023/05/24 03:42:43;;;;;;;;;;;;;;;13.19;100.00;99481.00;5071440;28;827;-61
2023/05/24 03:45:10;;;;;;;;;;;;;;;13.20;100.00;99482.56;5071608;28;843;-62
2023/05/24 03:47:37;;;;;;;;;;;;;;;13.26;100.00;99485.63;5071588;28;1933;-62
2023/05/24 03:50:04;;;;;;;;;;;;;;;13.34;100.00;99484.28;5071353;28;839;-62
2023/05/24 03:52:30;;;;;;;;;;;;;;;13.43;100.00;99489.25;5071156;28;819;-61
2023/05/24 03:54:57;;;;;;;;;;;;;;;13.47;100.00;99484.41;5071524;28;812;-62
2023/05/24 03:57:24;;;;;;;;;;;;;;;13.56;100.00;99492.16;5071167;28;958;-63
2023/05/24 03:59:49;;;;;;;;;;;;;;;13.61;100.00;99499.97;5071301;28;836;-61
2023/05/24 04:02:16;;;;;;;;;;;;;;;13.67;100.00;99498.25;5071530;28;815;-62
2023/05/24 04:04:43;;;;;;;;;;;;;;;13.78;100.00;99498.78;5071433;28;931;-62
2023/05/24 04:07:12;;;;;;;;;;;;;;;13.85;100.00;99500.63;5071346;28;1890;-61
2023/05/24 04:09:39;;;;;;;;;;;;;;;13.94;100.00;99497.25;5074305;28;905;-63
2023/05/24 04:12:05;;;;;;;;;;;;;;;14.01;100.00;99495.06;5074896;28;1278;-62
2023/05/24 04:14:32;;;;;;;;;;;;;;;14.09;100.00;99496.47;5075168;28;827;-62
2023/05/24 04:16:58;;;;;;;;;;;;;;;14.13;100.00;99506.75;5075264;28;855;-61
2023/05/24 04:19:25;;;;;;;;;;;;;;;14.17;100.00;99508.22;5075186;28;858;-62
2023/05/24 04:21:52;;;;;;;;;;;;;;;14.23;100.00;99512.03;5075027;28;862;-62
2023/05/24 04:24:19;;;;;;;;;;;;;;;14.35;100.00;99513.31;5075131;28;917;-61
2023/05/24 04:26:46;;;;;;;;;;;;;;;14.45;100.00;99501.16;5074922;28;895;-62
2023/05/24 04:29:13;;;;;;;;;;;;;;;14.58;100.00;99509.59;5074939;28;1910;-62
2023/05/24 04:31:43;;;;;;;;;;;;;;;14.80;100.00;99507.03;5075172;28;835;-63
2023/05/24 04:34:13;;;;;;;;;;;;;;;14.99;100.00;99499.75;5074587;28;811;-63
2023/05/24 04:36:40;;;;;;;;;;;;;;;15.07;100.00;99503.91;5074642;28;820;-63
2023/05/24 04:39:07;;;;;;;;;;;;;;;15.25;100.00;99499.81;5074537;28;843;-63
2023/05/24 04:41:37;;;;;;;;;;;;;;;15.41;100.00;99498.97;5074607;28;828;-62
2023/05/24 04:44:04;;;;;;;;;;;;;;;15.52;100.00;99497.44;5074373;28;926;-62
2023/05/24 04:46:31;;;;;;;;;;;;;;;15.57;100.00;99496.09;5074598;28;804;-63
2023/05/24 04:48:57;;;;;;;;;;;;;;;15.43;100.00;99494.53;5074337;28;1893;-62
2023/05/24 04:51:24;;;;;;;;;;;;;;;15.58;100.00;99489.31;5074249;28;586;-62
2023/05/24 04:53:52;;;;;;;;;;;;;;;15.75;100.00;99489.25;5074285;28;873;-62
2023/05/24 04:56:18;;;;;;;;;;;;;;;15.87;100.00;99499.59;5074273;28;815;-62
2023/05/24 04:58:46;;;;;;;;;;;;;;;16.17;100.00;99494.66;5074267;28;863;-63
2023/05/24 05:01:14;;;;;;;;;;;;;;;16.67;100.00;99498.56;5074180;28;807;-63
2023/05/24 05:03:41;;;;;;;;;;;;;;;17.12;100.00;99489.78;5074077;28;870;-63
2023/05/24 05:06:09;;;;;;;;;;;;;;;17.54;100.00;99492.22;5074144;28;823;-63
2023/05/24 05:08:36;;;;;;;;;;;;;;;17.56;100.00;99494.56;5073909;28;1889;-63
2023/05/24 05:11:03;;;;;;;;;;;;;;;17.60;100.00;99500.00;5073868;28;1364;-62
2023/05/24 05:13:30;;;;;;;;;;;;;;;17.85;100.00;99491.44;5073910;28;867;-62
2023/05/24 05:15:57;;;;;;;;;;;;;;;17.99;100.00;99508.88;5074105;28;870;-63
2023/05/24 05:18:23;;;;;;;;;;;;;;;18.09;100.00;99510.47;5073881;28;978;-62
2023/05/24 05:20:50;;;;;;;;;;;;;;;18.35;100.00;99509.00;5072554;28;871;-63
2023/05/24 05:23:17;;;;;;;;;;;;;;;18.50;100.00;99516.81;5073712;28;933;-63
2023/05/24 05:25:44;;;;;;;;;;;;;;;18.74;100.00;99512.16;5072477;28;1298;-63
2023/05/24 05:28:11;;;;;;;;;;;;;;;18.00;100.00;99510.47;5073532;28;1913;-63
2023/05/24 05:30:39;;;;;;;;;;;;;;;17.21;100.00;99510.66;5073518;28;914;-62
2023/05/24 05:33:05;;;;;;;;;;;;;;;16.79;100.00;99505.31;5073950;28;863;-63
2023/05/24 05:35:33;;;;;;;;;;;;;;;16.77;100.00;99503.00;5073554;28;847;-61
2023/05/24 05:38:00;;;;;;;;;;;;;;;16.76;100.00;99498.66;5073525;28;823;-60
2023/05/24 05:40:27;;;;;;;;;;;;;;;16.74;100.00;99513.03;5073429;28;827;-61
2023/05/24 05:42:53;;;;;;;;;;;;;;;16.71;100.00;99507.59;5073583;28;906;-61
2023/05/24 05:45:21;;;;;;;;;;;;;;;16.98;100.00;99511.88;5073400;28;875;-61
2023/05/24 05:47:48;;;;;;;;;;;;;;;16.98;100.00;99518.22;5073429;28;1910;-61
2023/05/24 05:50:15;;;;;;;;;;;;;;;17.51;100.00;99509.13;5073072;28;946;-60
2023/05/24 05:52:41;;;;;;;;;;;;;;;18.69;100.00;99514.78;5073269;28;839;-60
2023/05/24 05:55:10;;;;;;;;;;;;;;;19.24;100.00;99526.00;5073142;28;844;-60
2023/05/24 05:57:37;;;;;;;;;;;;;;;19.64;100.00;99522.19;5072972;28;872;-61
2023/05/24 06:00:04;;;;;;;;;;;;;;;20.84;100.00;99515.22;5073372;28;867;-61
2023/05/24 06:02:31;;;;;;;;;;;;;;;20.73;100.00;99521.38;5073016;28;918;-61
2023/05/24 06:04:58;;;;;;;;;;;;;;;20.86;100.00;99515.50;5072917;28;852;-62
2023/05/24 06:07:26;;;;;;;;;;;;;;;21.69;100.00;99523.94;5073199;28;1910;-62
2023/05/24 06:10:02;;;;;;;;;;;;;;;22.67;100.00;99522.81;5072763;28;1244;-62
2023/05/24 06:12:29;;;;;;;;;;;;;;;23.30;100.00;99530.75;5033299;28;883;-63
2023/05/24 06:14:56;;;;;;;;;;;;;;;23.77;100.00;99541.94;5033328;28;816;-62
2023/05/24 06:17:23;;;;;;;;;;;;;;;24.76;100.00;99533.09;5033034;28;818;-63
2023/05/24 06:19:52;;;;;;;;;;;;;;;25.32;100.00;99538.16;5032837;28;824;-63
2023/05/24 06:22:20;;;;;;;;;;;;;;;23.98;100.00;99536.97;5032778;28;875;-64
2023/05/24 06:24:48;;;;;;;;;;;;;;;23.60;100.00;99538.97;5032633;28;971;-63
2023/05/24 06:27:15;;;;;;;;;;;;;;;24.70;100.00;99532.28;5032619;28;1934;-63
2023/05/24 06:29:42;;;;;;;;;;;;;;;26.40;100.00;99529.13;5032578;28;819;-63
2023/05/24 06:32:09;;;;;;;;;;;;;;;27.16;100.00;99532.72;5032226;28;833;-62
2023/05/24 06:34:36;;;;;;;;;;;;;;;28.16;100.00;99529.63;5032545;28;836;-63
2023/05/24 06:37:03;;;;;;;;;;;;;;;28.45;96.76;99533.72;5032387;28;907;-63
2023/05/24 06:39:30;;;;;;;;;;;;;;;28.60;93.27;99535.41;5032739;28;918;-63
2023/05/24 06:41:57;;;;;;;;;;;;;;;28.77;92.51;99535.97;5032363;28;906;-63
2023/05/24 06:44:32;;;;;;;;;;;;;;;28.80;89.54;99534.88;5032363;28;816;-63
2023/05/24 06:46:59;;;;;;;;;;;;;;;26.52;98.00;99534.75;5032181;28;936;-63
2023/05/24 06:49:26;;;;;;;;;;;;;;;24.72;100.00;99524.84;5032217;28;1957;-63
2023/05/24 06:51:53;;;;;;;;;;;;;;;24.60;100.00;99526.88;5032206;28;848;-63
2023/05/24 06:54:20;;;;;;;;;;;;;;;25.19;100.00;99525.25;5032117;28;855;-63
2023/05/24 06:56:47;;;;;;;;;;;;;;;26.07;100.00;99527.94;5032077;28;898;-63
2023/05/24 06:59:14;;;;;;;;;;;;;;;27.79;95.73;99533.06;5032117;28;891;-64
2023/05/24 07:01:42;;;;;;;;;;;;;;;29.11;88.95;99524.94;5031995;28;895;-64
2023/05/24 07:04:08;;;;;;;;;;;;;;;27.95;92.15;99535.00;5032164;28;930;-64
2023/05/24 07:06:38;;;;;;;;;;;;;;;27.42;94.12;99534.38;5031976;28;835;-63
2023/05/24 07:09:05;;;;;;;;;;;;;;;28.14;92.31;99528.63;5031752;28;1898;-64
2023/05/24 07:11:32;;;;;;;;;;;;;;;28.58;90.12;99529.50;5056708;28;1256;-64
2023/05/24 07:13:59;;;;;;;;;;;;;;;28.55;90.51;99534.19;5071708;28;836;-64
2023/05/24 07:16:26;;;;;;;;;;;;;;;28.36;91.62;99528.41;5071674;28;927;-64
2023/05/24 07:18:54;;;;;;;;;;;;;;;29.58;85.33;99525.81;5071590;28;831;-64
2023/05/24 07:21:21;;;;;;;;;;;;;;;30.30;73.20;99523.81;5071950;28;832;-64
2023/05/24 07:23:48;;;;;;;;;;;;;;;30.68;74.09;99525.66;5071596;28;831;-63
2023/05/24 07:26:16;;;;;;;;;;;;;;;29.99;70.98;99528.22;5071560;28;863;-64
2023/05/24 07:28:43;;;;;;;;;;;;;;;28.37;75.90;99529.94;5071577;28;1918;-64
2023/05/24 07:31:10;;;;;;;;;;;;;;;26.59;81.32;99531.44;5071521;28;930;-64
2023/05/24 07:33:38;;;;;;;;;;;;;;;26.08;83.07;99535.13;5071738;28;882;-64
2023/05/24 07:36:05;;;;;;;;;;;;;;;26.61;78.92;99531.69;5071507;28;804;-64
2023/05/24 07:38:33;;;;;;;;;;;;;;;25.71;80.26;99543.09;5071498;28;820;-63
2023/05/24 07:41:02;;;;;;;;;;;;;;;26.93;77.49;99532.06;5071725;28;820;-64
2023/05/24 07:43:28;;;;;;;;;;;;;;;27.88;74.93;99541.28;5070985;28;844;-63
2023/05/24 07:45:55;;;;;;;;;;;;;;;27.66;74.70;99545.03;5071627;28;820;-64
2023/05/24 07:48:23;;;;;;;;;;;;;;;28.27;72.96;99537.28;5071527;28;1947;-63
2023/05/24 07:50:50;;;;;;;;;;;;;;;28.43;65.40;99504.31;5071554;28;799;-64
2023/05/24 07:53:18;;;;;;;;;;;;;;;28.23;64.59;99534.75;5071373;28;919;-63
2023/05/24 07:55:45;;;;;;;;;;;;;;;29.51;61.32;99527.97;5071272;28;988;-63
2023/05/24 07:58:12;;;;;;;;;;;;;;;29.78;58.21;99522.38;5071281;28;867;-65
2023/05/24 08:00:40;;;;;;;;;;;;;;;28.08;61.61;99537.22;5071493;28;890;-64
2023/05/24 08:03:06;;;;;;;;;;;;;;;26.78;65.25;99537.28;5071184;28;861;-64
2023/05/24 08:05:33;;;;;;;;;;;;;;;26.32;67.42;99541.53;5069688;28;1209;-63
2023/05/24 08:08:00;;;;;;;;;;;;;;;28.15;63.23;99538.72;5070996;28;1951;-64
2023/05/24 08:10:27;;;;;;;;;;;;;;;30.47;57.72;99534.88;5071059;28;1251;-62
2023/05/24 08:12:54;;;;;;;;;;;;;;;31.95;49.53;99516.78;5071221;28;816;-61
2023/05/24 08:15:22;;;;;;;;;;;;;;;33.02;41.44;99533.06;5071123;28;858;-61
2023/05/24 08:17:48;;;;;;;;;;;;;;;33.08;39.71;99539.41;5071043;28;914;-61
2023/05/24 08:20:16;;;;;;;;;;;;;;;33.09;37.09;99540.94;5071075;28;824;-61
2023/05/24 08:22:43;;;;;;;;;;;;;;;32.38;36.59;99542.44;5071230;28;839;-59
2023/05/24 08:25:13;;;;;;;;;;;;;;;31.49;38.01;99539.22;5070954;28;864;-61
2023/05/24 08:27:41;;;;;;;;;;;;;;;28.93;41.78;99554.13;5070980;28;1969;-63
2023/05/24 08:30:08;;;;;;;;;;;;;;;28.12;42.31;99554.72;5070874;28;828;-64
2023/05/24 08:32:35;;;;;;;;;;;;;;;27.94;44.76;99544.06;5071059;28;894;-64
2023/05/24 08:35:02;;;;;;;;;;;;;;;29.19;40.72;99545.03;5071058;28;823;-61
2023/05/24 08:37:30;;;;;;;;;;;;;;;29.60;39.85;99551.66;5070968;28;854;-62
2023/05/24 08:39:56;;;;;;;;;;;;;;;30.43;38.50;99545.09;5071218;28;843;-62
2023/05/24 08:42:24;;;;;;;;;;;;;;;31.43;38.38;99534.94;5070855;28;824;-62
2023/05/24 08:45:01;;;;;;;;;;;;;;;32.30;36.66;99540.28;5070837;28;843;-61
2023/05/24 08:47:29;;;;;;;;;;;;;;;32.90;34.96;99546.19;5070664;28;1957;-63
2023/05/24 08:49:56;;;;;;;;;;;;;;;32.68;35.00;99544.75;5071034;28;930;-62
2023/05/24 08:52:24;;;;;;;;;;;;;;;32.27;34.46;99544.28;5070788;28;906;-61
2023/05/24 08:54:51;;;;;;;;;;;;;;;31.84;35.61;99551.34;5072576;28;1123;-61
2023/05/24 08:57:19;;;;;;;;;;;;;;;31.60;36.42;99558.19;5073122;28;1325;-63
2023/05/24 08:59:45;;;;;;;;;;;;;;;31.69;35.27;99548.38;5074722;28;913;-62
2023/05/24 09:02:13;;;;;;;;;;;;;;;31.18;36.57;99554.47;5074305;28;879;-62
2023/05/24 09:04:40;;;;;;;;;;;;;;;30.95;37.89;99549.22;5074411;28;870;-61
2023/05/24 09:07:11;;;;;;;;;;;;;;;31.16;38.93;99542.84;5074405;28;879;-62
2023/05/24 09:09:43;;;;;;;;;;;;;;;31.09;39.48;99545.03;5074140;28;1942;-61
2023/05/24 09:12:12;;;;;;;;;;;;;;;31.43;39.24;99540.66;5073755;28;1261;-62
2023/05/24 09:14:44;;;;;;;;;;;;;;;31.59;38.09;99548.06;5074041;28;906;-62
2023/05/24 09:17:14;;;;;;;;;;;;;;;31.61;36.62;99548.28;5073997;28;899;-60
2023/05/24 09:19:45;;;;;;;;;;;;;;;31.29;36.52;99537.06;5073794;28;957;-63
2023/05/24 09:22:18;;;;;;;;;;;;;;;29.55;40.26;99544.72;5073939;28;819;-65
2023/05/24 09:24:48;;;;;;;;;;;;;;;28.48;42.33;99546.09;5073818;28;824;-65
2023/05/24 09:27:21;;;;;;;;;;;;;;;28.03;43.45;99549.41;5073718;28;877;-64
2023/05/24 09:29:50;;;;;;;;;;;;;;;27.26;44.40;99547.38;5073779;28;902;-63
2023/05/24 09:32:18;;;;;;;;;;;;;;;26.43;45.31;99559.25;5073611;28;947;-66
2023/05/24 09:34:48;;;;;;;;;;;;;;;25.97;46.50;99557.03;5073943;28;902;-64
2023/05/24 09:37:16;;;;;;;;;;;;;;;25.94;47.36;99555.97;5073651;28;852;-64
2023/05/24 10:10:55;;;;;;;;;;;;;;;27.75;49.43;99530.50;5634231;22;1692;-60
2023/05/24 10:13:22;;;;;;;;;;;;;;;27.89;48.26;99535.06;5052834;28;926;-60
2023/05/24 10:15:50;;;;;;;;;;;;;;;28.13;48.28;99532.78;5052806;28;874;-60
2023/05/24 10:18:17;;;;;;;;;;;;;;;28.00;48.34;99533.44;5052732;28;951;-60
2023/05/24 10:20:44;;;;;;;;;;;;;;;27.50;50.03;99541.03;5052801;28;894;-65
2023/05/24 10:23:14;;;;;;;;;;;;;;;26.47;51.19;99542.75;5052639;28;816;-65
2023/05/24 10:25:43;;;;;;;;;;;;;;;25.62;53.85;99544.13;5053204;28;825;-64
2023/05/24 10:28:11;;;;;;;;;;;;;;;25.18;56.07;99545.56;5052879;28;1906;-65
2023/05/24 10:30:47;;;;;;;;;;;;;;;24.69;57.28;99542.03;5052561;28;824;-63
2023/05/24 10:33:15;;;;;;;;;;;;;;;24.72;57.50;99546.69;5052414;28;1189;-62
2023/05/24 10:35:42;;;;;;;;;;;;;;;24.95;57.17;99556.81;5052481;28;804;-63
2023/05/24 10:38:09;;;;;;;;;;;;;;;25.08;56.66;99550.69;5052389;28;839;-64
2023/05/24 10:40:40;;;;;;;;;;;;;;;25.04;57.01;99547.31;5052153;28;870;-62
2023/05/24 10:43:07;;;;;;;;;;;;;;;25.00;57.49;99547.56;5034392;28;1172;-65
2023/05/24 10:45:35;;;;;;;;;;;;;;;24.74;58.60;99544.13;5052194;28;831;-64
2023/05/24 10:48:22;;;;;;;;;;;;;;;24.46;59.49;99533.44;5052090;28;1910;-62
2023/05/24 10:50:50;;;;;;;;;;;;;;;24.20;60.75;99539.97;5038003;28;1105;-62
2023/05/24 10:53:17;;;;;;;;;;;;;;;24.15;61.17;99546.34;5052067;28;907;-63
2023/05/24 10:55:53;;;;;;;;;;;;;;;24.06;62.42;99552.19;5052199;28;852;-63
2023/05/24 10:58:25;;;;;;;;;;;;;;;23.88;62.75;99542.06;5052078;28;816;-63
2023/05/24 11:00:52;;;;;;;;;;;;;;;23.74;62.49;99540.88;5051996;28;836;-63
2023/05/24 11:03:23;;;;;;;;;;;;;;;23.64;61.86;99539.50;5051767;28;945;-62
2023/05/24 11:05:53;;;;;;;;;;;;;;;24.08;61.13;99535.50;5051949;28;835;-63
2023/05/24 11:08:24;;;;;;;;;;;;;;;24.51;59.40;99535.53;5051819;28;1964;-62
2023/05/24 11:11:05;;;;;;;;;;;;;;;25.29;57.22;99531.47;5051925;28;1229;-64
2023/05/24 11:13:32;;;;;;;;;;;;;;;25.71;55.91;99526.09;5051745;28;835;-61
2023/05/24 11:15:59;;;;;;;;;;;;;;;26.13;54.75;99519.41;5051694;28;832;-62
2023/05/24 11:18:25;;;;;;;;;;;;;;;26.63;53.12;99524.19;5050782;28;841;-63
2023/05/24 11:20:52;;;;;;;;;;;;;;;26.07;53.50;99521.47;5051627;28;851;-63
2023/05/24 11:23:19;;;;;;;;;;;;;;;25.64;54.96;99524.56;5051666;28;875;-64
2023/05/24 11:25:48;;;;;;;;;;;;;;;25.27;55.93;99529.16;5051567;28;836;-63
2023/05/24 11:28:16;;;;;;;;;;;;;;;24.88;56.59;99526.22;5051506;28;1914;-65
2023/05/24 11:30:44;;;;;;;;;;;;;;;24.62;57.69;99524.31;5051519;28;835;-62
2023/05/24 11:33:14;;;;;;;;;;;;;;;24.38;57.68;99530.31;5051370;28;959;-63
2023/05/24 11:35:42;;;;;;;;;;;;;;;24.02;58.76;99532.66;5051619;28;822;-65
2023/05/24 11:38:12;;;;;;;;;;;;;;;23.88;60.29;99550.50;5033770;28;1177;-62
2023/05/24 11:40:43;;;;;;;;;;;;;;;23.78;60.08;99549.91;5051441;28;859;-63
2023/05/24 11:43:15;;;;;;;;;;;;;;;23.93;59.93;99546.19;5051327;28;851;-62
2023/05/24 11:45:43;;;;;;;;;;;;;;;24.17;59.33;99538.13;5051362;28;824;-62
2023/05/24 11:48:10;;;;;;;;;;;;;;;24.74;58.13;99536.41;5051193;28;1960;-63
2023/05/24 11:50:40;;;;;;;;;;;;;;;24.74;56.89;99530.00;5051409;28;902;-62
2023/05/24 11:53:12;;;;;;;;;;;;;;;24.83;57.10;99539.03;5051380;28;871;-63
2023/05/24 11:55:42;;;;;;;;;;;;;;;25.75;55.98;99535.13;5051450;28;914;-62
2023/05/24 11:58:17;;;;;;;;;;;;;;;25.91;54.46;99525.88;5051550;28;895;-63
2023/05/24 12:00:46;;;;;;;;;;;;;;;25.45;55.17;99525.09;5051257;28;938;-62
2023/05/24 12:03:12;;;;;;;;;;;;;;;25.53;54.28;99524.56;5051213;28;839;-63
2023/05/24 12:05:39;;;;;;;;;;;;;;;27.14;50.80;99526.00;5051232;28;863;-63
2023/05/24 12:08:08;;;;;;;;;;;;;;;28.03;48.63;99521.00;5051021;28;1957;-62
2023/05/24 12:10:36;;;;;;;;;;;;;;;28.43;47.15;99516.44;5032875;28;1402;-62
2023/05/24 12:13:04;;;;;;;;;;;;;;;28.42;46.25;99506.38;5051134;28;894;-63
2023/05/24 12:15:31;;;;;;;;;;;;;;;28.01;47.02;99510.16;5051072;28;855;-62
2023/05/24 12:17:58;;;;;;;;;;;;;;;26.82;48.56;99495.25;5051032;28;824;-63
2023/05/24 12:20:27;;;;;;;;;;;;;;;26.06;50.51;99491.63;5051163;28;858;-62
2023/05/24 12:22:54;;;;;;;;;;;;;;;26.98;49.61;99494.38;5050969;28;903;-62
2023/05/24 12:25:22;;;;;;;;;;;;;;;28.05;46.98;99498.50;5050966;28;874;-63
2023/05/24 12:27:55;;;;;;;;;;;;;;;28.64;45.63;99498.91;5051232;28;1922;-62
2023/05/24 12:30:25;;;;;;;;;;;;;;;28.60;44.78;99482.16;5053373;28;812;-63
2023/05/24 12:32:53;;;;;;;;;;;;;;;27.53;47.03;99488.13;5054822;28;811;-63
2023/05/24 12:35:20;;;;;;;;;;;;;;;26.42;49.29;99488.97;5054731;28;866;-65
2023/05/24 12:37:47;;;;;;;;;;;;;;;25.53;51.12;99488.56;5054580;28;820;-62
2023/05/24 12:40:16;;;;;;;;;;;;;;;24.81;53.03;99487.13;5054577;28;882;-62
2023/05/24 12:42:44;;;;;;;;;;;;;;;24.13;55.23;99497.31;5054577;28;843;-61
2023/05/24 12:45:11;;;;;;;;;;;;;;;23.59;57.77;99512.03;5054536;28;911;-62
2023/05/24 12:47:38;;;;;;;;;;;;;;;23.18;59.46;99510.09;5054234;28;1894;-62
2023/05/24 12:50:05;;;;;;;;;;;;;;;22.84;60.78;99512.53;5054473;28;839;-62
2023/05/24 12:52:32;;;;;;;;;;;;;;;22.61;62.45;99510.72;5054355;28;1062;-61
2023/05/24 12:54:58;;;;;;;;;;;;;;;22.43;63.61;99500.50;5054353;28;890;-62
2023/05/24 12:57:25;;;;;;;;;;;;;;;22.24;65.12;99511.25;5054317;28;855;-61
2023/05/24 12:59:52;;;;;;;;;;;;;;;22.05;66.38;99540.88;5054276;28;816;-61
2023/05/24 13:02:18;;;;;;;;;;;;;;;21.75;69.64;99541.69;5054202;28;812;-61
2023/05/24 13:04:46;;;;;;;;;;;;;;;21.25;71.53;99543.56;5054205;28;867;-63
2023/05/24 13:07:13;;;;;;;;;;;;;;;20.71;73.13;99544.31;5054110;28;891;-62
2023/05/24 13:09:40;;;;;;;;;;;;;;;20.45;72.90;99543.22;5054029;28;1878;-63
2023/05/24 13:12:06;;;;;;;;;;;;;;;20.13;74.42;99542.78;5053879;28;1217;-63
2023/05/24 13:14:33;;;;;;;;;;;;;;;20.04;76.55;99542.81;5053955;28;867;-63
2023/05/24 13:16:59;;;;;;;;;;;;;;;20.04;78.06;99529.56;5054129;28;883;-63
2023/05/24 13:19:26;;;;;;;;;;;;;;;20.17;78.32;99523.72;5053906;28;871;-63
2023/05/24 13:21:53;;;;;;;;;;;;;;;20.37;77.50;99523.16;5054157;28;879;-63
2023/05/24 13:24:19;;;;;;;;;;;;;;;20.51;77.68;99518.88;5053847;28;812;-64
2023/05/24 13:26:46;;;;;;;;;;;;;;;20.58;77.87;99519.28;5053946;28;899;-64
2023/05/24 13:29:16;;;;;;;;;;;;;;;20.72;77.93;99514.22;5053780;28;1910;-63
2023/05/24 13:31:43;;;;;;;;;;;;;;;20.74;77.79;99506.06;5053669;28;891;-63
2023/05/24 13:34:10;;;;;;;;;;;;;;;20.85;77.85;99506.31;5035732;28;1212;-63
2023/05/24 13:36:37;;;;;;;;;;;;;;;20.98;77.96;99504.00;5053463;28;813;-63